Time;durP1;ratioP1;P1;durP2;ratioP2;P2;SDS_P1;SDS_P2;PMS_P1;PMS_P2;Temp;Humidity;BMP_temperature;BMP_pressure;BME280_temperature;BME280_humidity;BME280_pressure;Samples;Min_cycle;Max_cycle;Signal;HPM_P1;HPM_P2
2023/04/18 00:01:14;;;;;;;11.82;5.80;;;;;;;;;;10565881;27;20079;-76
2023/04/18 00:06:20;;;;;;;14.93;6.22;;;;;;;;;;10558000;28;20043;-78
2023/04/18 00:11:24;;;;;;;15.25;6.35;;;;;;;;;;10556981;27;20504;-75
2023/04/18 00:16:27;;;;;;;14.52;6.00;;;;;;;;;;10553453;27;20042;-77
2023/04/18 00:21:31;;;;;;;13.70;6.05;;;;;;;;;;10567741;27;20039;-76
2023/04/18 00:26:44;;;;;;;17.15;7.07;;;;;;;;;;10562099;27;20039;-76
2023/04/18 00:31:47;;;;;;;17.02;7.15;;;;;;;;;;10553404;27;20046;-76
2023/04/18 00:36:51;;;;;;;13.57;6.53;;;;;;;;;;10559343;27;20047;-76
2023/04/18 00:41:54;;;;;;;17.75;6.88;;;;;;;;;;10561049;27;20489;-77
2023/04/18 00:46:56;;;;;;;15.68;7.10;;;;;;;;;;10560789;27;20051;-75
2023/04/18 00:52:00;;;;;;;16.42;7.53;;;;;;;;;;10559949;27;20530;-77
2023/04/18 00:57:03;;;;;;;20.30;8.45;;;;;;;;;;10555647;27;20453;-75
2023/04/18 01:02:06;;;;;;;16.65;7.50;;;;;;;;;;10556134;27;20487;-77
2023/04/18 01:07:10;;;;;;;19.08;6.97;;;;;;;;;;10547558;27;20046;-75
2023/04/18 01:12:13;;;;;;;18.77;7.20;;;;;;;;;;10548227;27;20067;-77
2023/04/18 01:17:27;;;;;;;17.88;7.60;;;;;;;;;;10559922;27;20047;-74
2023/04/18 01:22:31;;;;;;;19.80;7.78;;;;;;;;;;10555738;27;20545;-77
2023/04/18 01:27:35;;;;;;;16.05;7.45;;;;;;;;;;10545882;28;20146;-75
2023/04/18 01:32:38;;;;;;;;;;;;;;;;;;10544132;27;20044;-76
2023/04/18 01:37:41;;;;;;;16.20;6.53;;;;;;;;;;10549787;27;19931;-75
2023/04/18 01:42:45;;;;;;;17.95;7.28;;;;;;;;;;10542570;27;20051;-74
2023/04/18 01:47:47;;;;;;;19.83;8.27;;;;;;;;;;10557345;27;20031;-76
2023/04/18 01:52:51;;;;;;;18.25;7.88;;;;;;;;;;10550701;28;20047;-76
2023/04/18 01:57:55;;;;;;;21.48;8.05;;;;;;;;;;10547951;27;20036;-77
2023/04/18 02:02:58;;;;;;;19.20;7.03;;;;;;;;;;10547159;27;20196;-75
2023/04/18 02:08:02;;;;;;;18.25;7.57;;;;;;;;;;10550429;27;20042;-75
2023/04/18 02:13:06;;;;;;;21.25;8.27;;;;;;;;;;10549210;27;20143;-74
2023/04/18 02:18:19;;;;;;;23.17;8.45;;;;;;;;;;10543023;28;20039;-75
2023/04/18 02:23:22;;;;;;;23.77;9.00;;;;;;;;;;10545888;27;20052;-75
2023/04/18 02:28:26;;;;;;;21.35;8.75;;;;;;;;;;10545815;27;20112;-76
2023/04/18 02:33:29;;;;;;;;;;;;;;;;;;10543939;28;20404;-75
2023/04/18 02:38:33;;;;;;;26.02;9.82;;;;;;;;;;10578649;27;19919;-75
2023/04/18 02:43:37;;;;;;;25.00;9.73;;;;;;;;;;10548266;27;20040;-76
2023/04/18 02:48:40;;;;;;;24.42;9.25;;;;;;;;;;10534860;28;20036;-76
2023/04/18 02:53:43;;;;;;;28.20;10.18;;;;;;;;;;10548581;28;20119;-77
2023/04/18 02:58:48;;;;;;;26.52;10.52;;;;;;;;;;10552103;28;20414;-76
2023/04/18 03:03:52;;;;;;;31.42;12.95;;;;;;;;;;10549431;28;20414;-77
2023/04/18 03:08:55;;;;;;;29.00;10.90;;;;;;;;;;10547620;28;20044;-75
2023/04/18 03:14:00;;;;;;;26.00;10.82;;;;;;;;;;10554922;28;20650;-77
2023/04/18 03:19:05;;;;;;;29.88;11.82;;;;;;;;;;10550879;28;20168;-76
2023/04/18 03:24:09;;;;;;;27.57;11.50;;;;;;;;;;10564838;27;20140;-75
2023/04/18 03:29:15;;;;;;;30.45;10.98;;;;;;;;;;10552837;28;20483;-76
2023/04/18 03:34:19;;;;;;;26.77;10.40;;;;;;;;;;10540524;28;20126;-76
2023/04/18 03:39:23;;;;;;;25.05;9.85;;;;;;;;;;10557087;28;20037;-76
2023/04/18 03:44:27;;;;;;;27.10;10.70;;;;;;;;;;10562578;27;20052;-76
2023/04/18 03:49:29;;;;;;;;;;;;;;;;;;10550129;28;20085;-76
2023/04/18 03:54:32;;;;;;;27.33;11.00;;;;;;;;;;10546935;28;19924;-76
2023/04/18 03:59:37;;;;;;;25.33;9.90;;;;;;;;;;10541521;28;20063;-76
2023/04/18 04:04:40;;;;;;;27.88;11.02;;;;;;;;;;10565736;27;20621;-76
2023/04/18 04:09:43;;;;;;;31.40;11.85;;;;;;;;;;10556056;27;20043;-76
2023/04/18 04:14:47;;;;;;;28.17;11.45;;;;;;;;;;10553975;27;20042;-77
2023/04/18 04:19:50;;;;;;;28.58;12.38;;;;;;;;;;10568689;27;20039;-76
2023/04/18 04:24:56;;;;;;;31.70;10.83;;;;;;;;;;10555676;27;20052;-76
2023/04/18 04:30:01;;;;;;;30.52;11.43;;;;;;;;;;10581105;27;20047;-78
2023/04/18 04:35:13;;;;;;;31.60;12.38;;;;;;;;;;10584186;27;20036;-78
2023/04/18 04:40:17;;;;;;;26.20;10.57;;;;;;;;;;10586745;27;20081;-75
2023/04/18 04:45:22;;;;;;;29.08;11.55;;;;;;;;;;10566695;28;20105;-75
2023/04/18 04:50:25;;;;;;;26.05;10.55;;;;;;;;;;10574106;27;20167;-75
2023/04/18 04:55:27;;;;;;;34.50;12.98;;;;;;;;;;10578424;27;20036;-76
2023/04/18 05:00:31;;;;;;;31.88;11.95;;;;;;;;;;10579714;27;20059;-77
2023/04/18 05:05:34;;;;;;;28.00;10.73;;;;;;;;;;10560578;27;20036;-77
2023/04/18 05:10:38;;;;;;;29.30;11.38;;;;;;;;;;10556767;27;21341;-78
2023/04/18 05:15:42;;;;;;;27.83;10.65;;;;;;;;;;10557695;27;20063;-77
2023/04/18 05:20:45;;;;;;;28.05;11.45;;;;;;;;;;10551815;28;20047;-75
2023/04/18 05:25:47;;;;;;;27.83;11.25;;;;;;;;;;10547576;27;20038;-74
2023/04/18 05:30:59;;;;;;;28.67;11.00;;;;;;;;;;10547332;27;20519;-75
2023/04/18 05:36:02;;;;;;;31.15;12.13;;;;;;;;;;10550361;27;20104;-77
2023/04/18 05:41:05;;;;;;;29.83;11.07;;;;;;;;;;10564176;27;20456;-76
2023/04/18 05:46:09;;;;;;;27.25;9.95;;;;;;;;;;10551305;27;20034;-76
2023/04/18 05:51:11;;;;;;;;;;;;;;;;;;10539037;28;20585;-77
2023/04/18 05:56:14;;;;;;;22.75;9.48;;;;;;;;;;10555121;28;19927;-77
2023/04/18 06:01:18;;;;;;;26.50;11.70;;;;;;;;;;10547242;27;20040;-77
2023/04/18 06:06:22;;;;;;;21.45;9.63;;;;;;;;;;10554432;27;20327;-77
2023/04/18 06:11:25;;;;;;;24.10;10.45;;;;;;;;;;10556613;27;20411;-76
2023/04/18 06:16:29;;;;;;;24.83;10.32;;;;;;;;;;10558840;27;20032;-76
2023/04/18 06:21:33;;;;;;;23.77;10.65;;;;;;;;;;10553221;27;20036;-77
2023/04/18 06:26:36;;;;;;;23.85;10.05;;;;;;;;;;10562779;27;20047;-75
2023/04/18 06:31:40;;;;;;;22.55;9.93;;;;;;;;;;10556496;27;20109;-76
2023/04/18 06:36:44;;;;;;;22.75;9.32;;;;;;;;;;10544591;28;20044;-75
2023/04/18 06:41:47;;;;;;;21.80;10.32;;;;;;;;;;10538618;28;20047;-76
2023/04/18 06:46:52;;;;;;;19.23;9.07;;;;;;;;;;10559143;27;20036;-77
2023/04/18 06:51:55;;;;;;;19.00;9.00;;;;;;;;;;10566335;27;20507;-77
2023/04/18 06:56:58;;;;;;;21.52;10.15;;;;;;;;;;10550833;28;20068;-77
2023/04/18 07:02:04;;;;;;;21.77;9.73;;;;;;;;;;10542960;28;20508;-76
2023/04/18 07:07:07;;;;;;;22.10;9.25;;;;;;;;;;10525614;28;20040;-76
2023/04/18 07:12:12;;;;;;;19.38;9.43;;;;;;;;;;10552525;28;20044;-77
2023/04/18 07:17:17;;;;;;;19.58;8.90;;;;;;;;;;10529025;28;20502;-77
2023/04/18 07:22:23;;;;;;;18.33;7.28;;;;;;;;;;10547987;28;20044;-77
2023/04/18 07:27:26;;;;;;;19.60;8.75;;;;;;;;;;10570855;27;20089;-76
2023/04/18 07:32:31;;;;;;;18.48;8.73;;;;;;;;;;10555501;28;20499;-77
2023/04/18 07:37:34;;;;;;;17.00;7.05;;;;;;;;;;10548988;28;20101;-79
2023/04/18 07:42:37;;;;;;;13.70;7.10;;;;;;;;;;10538182;28;20048;-78
2023/04/18 07:47:41;;;;;;;15.63;7.60;;;;;;;;;;10560728;28;20040;-77
2023/04/18 07:52:46;;;;;;;18.88;7.25;;;;;;;;;;10558579;27;20070;-85
2023/04/18 07:57:50;;;;;;;16.85;7.97;;;;;;;;;;10561330;28;20468;-78
2023/04/18 08:02:55;;;;;;;19.20;7.97;;;;;;;;;;10555156;28;20055;-78
2023/04/18 08:07:59;;;;;;;15.50;6.00;;;;;;;;;;10539740;27;20090;-78
2023/04/18 08:13:01;;;;;;;17.30;7.95;;;;;;;;;;10540104;27;20518;-78
2023/04/18 08:18:05;;;;;;;17.73;8.57;;;;;;;;;;10550317;27;20039;-78
2023/04/18 08:23:08;;;;;;;20.55;9.30;;;;;;;;;;10544206;28;20044;-78
2023/04/18 08:28:14;;;;;;;19.77;9.13;;;;;;;;;;10567385;27;20543;-79
2023/04/18 08:33:19;;;;;;;19.17;8.73;;;;;;;;;;10553077;28;20055;-78
2023/04/18 08:38:23;;;;;;;17.50;7.57;;;;;;;;;;10540425;28;20162;-77
2023/04/18 08:43:26;;;;;;;19.60;7.97;;;;;;;;;;10552004;27;20144;-78
2023/04/18 08:48:31;;;;;;;21.70;9.05;;;;;;;;;;10556439;27;20042;-78
2023/04/18 08:53:34;;;;;;;22.67;9.38;;;;;;;;;;10555826;27;20732;-77
2023/04/18 08:58:37;;;;;;;16.60;8.05;;;;;;;;;;10554721;27;20040;-77
2023/04/18 09:03:42;;;;;;;15.38;7.32;;;;;;;;;;10549649;27;20496;-78
2023/04/18 09:08:56;;;;;;;20.02;8.25;;;;;;;;;;10551374;27;20032;-78
2023/04/18 09:14:01;;;;;;;15.52;7.57;;;;;;;;;;10546791;27;20116;-79
2023/04/18 09:19:16;;;;;;;16.17;6.65;;;;;;;;;;10549015;28;20035;-78
2023/04/18 09:24:22;;;;;;;18.15;6.80;;;;;;;;;;10555589;27;20074;-78
2023/04/18 09:29:40;;;;;;;17.40;7.25;;;;;;;;;;10558920;27;20063;-77
2023/04/18 09:34:45;;;;;;;14.90;7.13;;;;;;;;;;10550706;28;20044;-78
2023/04/18 09:39:48;;;;;;;15.55;7.20;;;;;;;;;;10549043;27;20507;-79
2023/04/18 09:45:04;;;;;;;11.03;5.27;;;;;;;;;;10550535;27;20146;-80
2023/04/18 09:50:10;;;;;;;17.30;7.07;;;;;;;;;;10556858;27;20328;-79
2023/04/18 09:55:14;;;;;;;18.85;7.95;;;;;;;;;;10565755;27;20086;-80
2023/04/18 10:00:22;;;;;;;18.08;7.47;;;;;;;;;;10570811;27;20097;-80
2023/04/18 10:05:35;;;;;;;16.55;6.75;;;;;;;;;;10573969;28;20047;-80
2023/04/18 10:10:39;;;;;;;16.52;7.25;;;;;;;;;;10577272;28;20073;-79
2023/04/18 10:15:43;;;;;;;16.60;6.50;;;;;;;;;;10603904;27;20050;-77
2023/04/18 10:20:48;;;;;;;13.45;6.38;;;;;;;;;;10589391;28;20169;-79
2023/04/18 10:25:50;;;;;;;12.40;6.07;;;;;;;;;;10592630;27;20129;-77
2023/04/18 10:31:02;;;;;;;15.57;6.82;;;;;;;;;;10571997;27;20031;-79
2023/04/18 10:36:17;;;;;;;17.20;7.25;;;;;;;;;;10561016;27;20092;-80
2023/04/18 10:41:24;;;;;;;16.48;6.80;;;;;;;;;;10554066;27;20435;-78
2023/04/18 10:46:27;;;;;;;13.50;6.43;;;;;;;;;;10552513;28;20111;-78
2023/04/18 10:51:35;;;;;;;15.02;6.22;;;;;;;;;;10558006;28;20050;-79
2023/04/18 10:56:38;;;;;;;14.70;6.50;;;;;;;;;;10533877;28;20043;-79
2023/04/18 11:01:44;;;;;;;15.82;7.13;;;;;;;;;;10557378;28;20357;-80
2023/04/18 11:06:50;;;;;;;13.32;5.55;;;;;;;;;;10560651;28;20476;-80
2023/04/18 11:12:03;;;;;;;14.00;6.07;;;;;;;;;;10557683;28;20046;-80
2023/04/18 11:17:15;;;;;;;12.73;5.85;;;;;;;;;;10563005;27;20446;-79
2023/04/18 11:22:19;;;;;;;14.73;5.53;;;;;;;;;;10560415;27;20134;-78
2023/04/18 11:27:24;;;;;;;12.20;5.57;;;;;;;;;;10559097;28;20149;-78
2023/04/18 11:32:26;;;;;;;;;;;;;;;;;;10558935;28;20040;-78
2023/04/18 11:37:32;;;;;;;9.38;4.18;;;;;;;;;;10560749;27;19924;-79
2023/04/18 11:42:35;;;;;;;11.75;4.65;;;;;;;;;;10555343;27;20043;-81
2023/04/18 11:47:38;;;;;;;11.65;4.93;;;;;;;;;;10553591;27;20247;-78
2023/04/18 11:52:42;;;;;;;11.98;5.28;;;;;;;;;;10555153;27;20044;-79
2023/04/18 11:57:53;;;;;;;12.05;5.75;;;;;;;;;;10549416;28;20043;-81
2023/04/18 12:02:57;;;;;;;12.40;5.40;;;;;;;;;;10553494;27;20391;-81
2023/04/18 12:08:06;;;;;;;12.75;5.80;;;;;;;;;;10566733;27;20112;-80
2023/04/18 12:13:09;;;;;;;12.73;5.65;;;;;;;;;;10553740;27;20051;-81
2023/04/18 12:18:13;;;;;;;12.50;5.88;;;;;;;;;;10537244;27;20039;-80
2023/04/18 12:23:31;;;;;;;10.90;4.75;;;;;;;;;;10556216;27;20063;-80
2023/04/18 12:28:35;;;;;;;7.63;4.28;;;;;;;;;;10553652;28;20042;-79
2023/04/18 12:33:37;;;;;;;11.07;5.50;;;;;;;;;;10560692;28;20043;-79
2023/04/18 12:38:41;;;;;;;11.70;5.15;;;;;;;;;;10552208;27;20108;-79
2023/04/18 12:43:45;;;;;;;12.32;5.05;;;;;;;;;;10551779;27;20092;-79
2023/04/18 12:48:49;;;;;;;10.10;4.57;;;;;;;;;;10551703;28;20067;-80
2023/04/18 12:53:53;;;;;;;11.63;5.32;;;;;;;;;;10548437;28;20104;-79
2023/04/18 12:58:57;;;;;;;11.38;5.05;;;;;;;;;;10553081;27;20122;-80
2023/04/18 13:04:00;;;;;;;10.85;4.85;;;;;;;;;;10549645;27;20140;-79
2023/04/18 13:09:16;;;;;;;9.98;4.80;;;;;;;;;;10540992;27;20039;-78
2023/04/18 13:14:19;;;;;;;10.35;4.95;;;;;;;;;;10550045;27;20046;-81
2023/04/18 13:19:23;;;;;;;10.15;4.72;;;;;;;;;;10548835;27;20476;-79
2023/04/18 13:24:27;;;;;;;8.33;3.60;;;;;;;;;;10553961;27;20421;-79
2023/04/18 13:29:30;;;;;;;8.15;3.45;;;;;;;;;;10553003;27;20039;-80
2023/04/18 13:34:33;;;;;;;8.27;4.18;;;;;;;;;;10542675;28;20039;-78
2023/04/18 13:39:38;;;;;;;9.77;4.53;;;;;;;;;;10547553;28;20027;-79
2023/04/18 13:44:40;;;;;;;10.23;4.25;;;;;;;;;;10538757;27;20044;-78
2023/04/18 13:49:43;;;;;;;7.55;3.55;;;;;;;;;;10549420;28;20389;-78
2023/04/18 13:54:48;;;;;;;9.05;4.10;;;;;;;;;;10546941;28;20075;-78
2023/04/18 13:59:51;;;;;;;8.38;3.67;;;;;;;;;;10532321;27;20404;-78
2023/04/18 14:04:54;;;;;;;14.63;5.30;;;;;;;;;;10543996;28;20180;-78
2023/04/18 14:09:58;;;;;;;9.93;4.82;;;;;;;;;;10555126;28;20552;-78
2023/04/18 14:15:01;;;;;;;;;;;;;;;;;;10551649;27;20032;-79
2023/04/18 14:20:17;;;;;;;6.88;3.38;;;;;;;;;;10554402;27;19927;-78
2023/04/18 14:25:21;;;;;;;8.15;3.45;;;;;;;;;;10539447;28;20519;-78
2023/04/18 14:30:27;;;;;;;8.82;3.70;;;;;;;;;;10569039;27;20085;-79
2023/04/18 14:35:30;;;;;;;10.80;4.38;;;;;;;;;;10547978;28;20048;-78
2023/04/18 14:40:37;;;;;;;7.80;3.90;;;;;;;;;;10549017;28;20031;-80
2023/04/18 14:45:43;;;;;;;6.25;3.05;;;;;;;;;;10544779;28;20039;-78
2023/04/18 14:50:55;;;;;;;8.63;3.90;;;;;;;;;;10551120;28;20040;-79
2023/04/18 14:56:00;;;;;;;9.57;4.07;;;;;;;;;;10539068;28;20046;-79
2023/04/18 15:01:03;;;;;;;9.80;4.15;;;;;;;;;;10547639;28;20031;-79
2023/04/18 15:06:07;;;;;;;11.45;4.95;;;;;;;;;;10547115;28;20047;-81
2023/04/18 15:11:12;;;;;;;13.10;5.78;;;;;;;;;;10551765;28;20044;-80
2023/04/18 15:16:17;;;;;;;13.68;5.45;;;;;;;;;;10548622;28;20039;-79
2023/04/18 15:21:19;;;;;;;8.63;3.83;;;;;;;;;;10552987;28;20044;-79
2023/04/18 15:26:24;;;;;;;9.40;3.67;;;;;;;;;;10550937;28;20500;-80
2023/04/18 15:31:29;;;;;;;10.60;4.53;;;;;;;;;;10549763;28;20044;-80
2023/04/18 15:36:32;;;;;;;13.85;5.05;;;;;;;;;;10550120;28;20040;-79
2023/04/18 15:41:41;;;;;;;11.35;4.40;;;;;;;;;;10568827;28;20079;-79
2023/04/18 15:46:44;;;;;;;13.20;6.10;;;;;;;;;;10562048;28;20821;-79
2023/04/18 15:51:48;;;;;;;9.65;4.38;;;;;;;;;;10580648;28;20186;-80
2023/04/18 15:56:53;;;;;;;11.55;4.78;;;;;;;;;;10573805;28;20043;-78
2023/04/18 16:02:06;;;;;;;11.20;4.90;;;;;;;;;;10570886;27;20032;-79
2023/04/18 16:07:09;;;;;;;;;;;;;;;;;;10580979;27;20405;-80
2023/04/18 16:12:14;;;;;;;14.30;5.40;;;;;;;;;;10571990;27;19920;-80
2023/04/18 16:17:19;;;;;;;12.57;5.18;;;;;;;;;;10565046;27;20533;-81
2023/04/18 16:22:24;;;;;;;10.98;4.97;;;;;;;;;;10567397;27;20430;-81
2023/04/18 16:27:30;;;;;;;11.13;4.93;;;;;;;;;;10554619;28;20100;-80
2023/04/18 16:32:33;;;;;;;14.93;6.05;;;;;;;;;;10557215;27;20081;-80
2023/04/18 16:37:36;;;;;;;12.48;5.65;;;;;;;;;;10560581;28;20051;-79
2023/04/18 16:42:40;;;;;;;10.40;4.72;;;;;;;;;;10546631;27;20049;-79
2023/04/18 16:47:43;;;;;;;12.90;4.80;;;;;;;;;;10564814;27;20055;-80
2023/04/18 16:52:46;;;;;;;13.13;4.78;;;;;;;;;;10556136;27;20039;-83
2023/04/18 16:57:50;;;;;;;11.17;4.53;;;;;;;;;;10557006;27;20031;-79
2023/04/18 17:02:54;;;;;;;7.05;2.75;;;;;;;;;;10551387;27;20035;-79
2023/04/18 17:07:58;;;;;;;8.27;4.00;;;;;;;;;;10562093;27;20048;-77
2023/04/18 17:13:03;;;;;;;9.18;4.05;;;;;;;;;;10550202;28;20040;-79
2023/04/18 17:18:07;;;;;;;9.27;4.00;;;;;;;;;;10548507;27;20471;-78
2023/04/18 17:23:10;;;;;;;8.97;3.87;;;;;;;;;;10550980;27;20383;-76
2023/04/18 17:28:15;;;;;;;11.83;4.47;;;;;;;;;;10549543;27;20036;-77
2023/04/18 17:33:18;;;;;;;13.90;4.82;;;;;;;;;;10547871;28;20084;-78
2023/04/18 17:38:21;;;;;;;10.10;4.45;;;;;;;;;;10546204;27;20036;-79
2023/04/18 17:43:26;;;;;;;9.95;4.10;;;;;;;;;;10551772;28;20036;-77
2023/04/18 17:48:29;;;;;;;12.48;5.45;;;;;;;;;;10546499;28;20205;-78
2023/04/18 17:53:34;;;;;;;9.38;4.85;;;;;;;;;;10558878;27;20058;-80
2023/04/18 17:58:39;;;;;;;13.45;5.63;;;;;;;;;;10551791;28;20043;-78
2023/04/18 18:03:43;;;;;;;13.82;6.30;;;;;;;;;;10551950;27;20408;-76
2023/04/18 18:08:46;;;;;;;11.32;5.25;;;;;;;;;;10554899;27;20052;-78
2023/04/18 18:13:53;;;;;;;10.68;5.03;;;;;;;;;;10520848;28;20507;-79
2023/04/18 18:18:58;;;;;;;13.38;5.38;;;;;;;;;;10548355;27;20035;-78
2023/04/18 18:24:00;;;;;;;12.07;5.13;;;;;;;;;;10551431;28;20134;-79
2023/04/18 18:29:08;;;;;;;12.68;5.13;;;;;;;;;;10548405;27;20048;-79
2023/04/18 18:34:11;;;;;;;13.68;5.97;;;;;;;;;;10545585;27;20130;-79
2023/04/18 18:39:15;;;;;;;12.90;5.82;;;;;;;;;;10547662;28;20044;-78
2023/04/18 18:44:20;;;;;;;15.32;5.45;;;;;;;;;;10552548;27;20039;-78
2023/04/18 18:49:23;;;;;;;12.98;5.60;;;;;;;;;;10549277;27;20039;-78
2023/04/18 18:54:27;;;;;;;10.70;5.03;;;;;;;;;;10552151;28;20035;-79
2023/04/18 18:59:31;;;;;;;17.33;5.88;;;;;;;;;;10545425;28;20054;-80
2023/04/18 19:04:34;;;;;;;12.50;5.68;;;;;;;;;;10537943;28;21425;-78
2023/04/18 19:09:37;;;;;;;13.50;5.88;;;;;;;;;;10541948;28;20153;-78
2023/04/18 19:14:41;;;;;;;15.75;6.88;;;;;;;;;;10538252;28;20585;-77
2023/04/18 19:19:44;;;;;;;;;;;;;;;;;;10547978;28;20043;-76
2023/04/18 19:24:48;;;;;;;17.40;6.28;;;;;;;;;;10553317;28;20333;-79
2023/04/18 19:29:52;;;;;;;18.90;8.53;;;;;;;;;;10548182;28;20063;-77
2023/04/18 19:34:55;;;;;;;12.82;5.95;;;;;;;;;;10556618;27;20301;-77
2023/04/18 19:40:01;;;;;;;15.75;6.60;;;;;;;;;;10548839;27;20105;-76
2023/04/18 19:45:04;;;;;;;;;;;;;;;;;;10533856;27;20043;-77
2023/04/18 19:50:09;;;;;;;16.92;6.28;;;;;;;;;;10553875;28;20627;-79
2023/04/18 19:55:13;;;;;;;17.25;6.53;;;;;;;;;;10556553;28;20048;-79
2023/04/18 20:00:17;;;;;;;13.40;5.95;;;;;;;;;;10549306;28;20120;-78
2023/04/18 20:05:22;;;;;;;13.95;5.90;;;;;;;;;;10550752;27;20062;-79
2023/04/18 20:10:25;;;;;;;14.68;6.95;;;;;;;;;;10551091;28;20682;-77
2023/04/18 20:15:30;;;;;;;16.80;7.22;;;;;;;;;;10549125;28;20051;-79
2023/04/18 20:20:35;;;;;;;16.30;6.43;;;;;;;;;;10553956;27;20040;-76
2023/04/18 20:25:38;;;;;;;;;;;;;;;;;;10554172;27;20047;-76
2023/04/18 20:30:41;;;;;;;17.17;6.78;;;;;;;;;;10549857;27;19928;-76
2023/04/18 20:35:45;;;;;;;;;;;;;;;;;;10547716;27;20043;-76
2023/04/18 20:40:51;;;;;;;18.30;7.03;;;;;;;;;;10551965;27;19920;-75
2023/04/18 20:45:56;;;;;;;18.73;7.40;;;;;;;;;;10554551;28;20050;-78
2023/04/18 20:51:00;;;;;;;18.15;7.47;;;;;;;;;;10549453;27;20120;-76
2023/04/18 20:56:05;;;;;;;18.55;7.30;;;;;;;;;;10549225;27;20047;-78
2023/04/18 21:01:08;;;;;;;17.77;6.75;;;;;;;;;;10552776;27;20040;-77
2023/04/18 21:06:11;;;;;;;17.27;7.50;;;;;;;;;;10554788;27;20059;-77
2023/04/18 21:11:15;;;;;;;18.23;6.83;;;;;;;;;;10548302;27;20504;-78
2023/04/18 21:16:19;;;;;;;15.27;6.53;;;;;;;;;;10562074;27;20074;-76
2023/04/18 21:21:22;;;;;;;14.93;6.22;;;;;;;;;;10551194;28;20040;-78
2023/04/18 21:26:26;;;;;;;14.57;6.40;;;;;;;;;;10559340;27;20056;-78
2023/04/18 21:31:30;;;;;;;15.45;6.60;;;;;;;;;;10559830;27;20040;-75
2023/04/18 21:36:33;;;;;;;16.63;6.63;;;;;;;;;;10559391;27;20051;-75
2023/04/18 21:41:37;;;;;;;15.70;6.30;;;;;;;;;;10559528;27;20066;-74
2023/04/18 21:46:40;;;;;;;;;;;;;;;;;;10553432;27;20116;-75
2023/04/18 21:51:43;;;;;;;12.52;5.85;;;;;;;;;;10562533;27;20349;-75
2023/04/18 21:56:52;;;;;;;12.82;5.00;;;;;;;;;;10562162;27;20032;-75
2023/04/18 22:01:55;;;;;;;;;;;;;;;;;;10556048;27;20048;-76
2023/04/18 22:06:58;;;;;;;12.27;4.95;;;;;;;;;;10554187;27;19926;-75
2023/04/18 22:12:03;;;;;;;12.95;5.13;;;;;;;;;;10550069;27;20615;-76
2023/04/18 22:17:05;;;;;;;13.05;5.80;;;;;;;;;;10548620;28;20498;-76
2023/04/18 22:22:08;;;;;;;13.82;5.25;;;;;;;;;;10548312;27;20039;-75
2023/04/18 22:27:13;;;;;;;12.68;5.13;;;;;;;;;;10546458;28;20055;-76
2023/04/18 22:32:17;;;;;;;12.40;5.45;;;;;;;;;;10545770;28;20054;-75
2023/04/18 22:37:20;;;;;;;14.77;5.70;;;;;;;;;;10551632;27;20051;-75
2023/04/18 22:42:24;;;;;;;9.75;4.45;;;;;;;;;;10551382;28;20198;-75
2023/04/18 22:47:27;;;;;;;11.25;5.10;;;;;;;;;;10552279;27;20496;-75
2023/04/18 22:52:31;;;;;;;12.43;5.68;;;;;;;;;;10549191;28;20404;-76
2023/04/18 22:57:38;;;;;;;11.90;5.70;;;;;;;;;;10555106;27;20044;-76
2023/04/18 23:02:41;;;;;;;15.40;5.95;;;;;;;;;;10549823;28;20124;-77
2023/04/18 23:07:45;;;;;;;14.15;5.53;;;;;;;;;;10548499;28;20044;-76
2023/04/18 23:12:49;;;;;;;14.90;6.05;;;;;;;;;;10539546;28;20031;-76
2023/04/18 23:17:52;;;;;;;11.65;5.25;;;;;;;;;;10549889;28;20047;-77
2023/04/18 23:22:55;;;;;;;13.88;5.55;;;;;;;;;;10526568;28;20036;-76
2023/04/18 23:28:07;;;;;;;14.40;6.47;;;;;;;;;;10556086;28;20047;-74
2023/04/18 23:33:10;;;;;;;14.68;6.22;;;;;;;;;;10551270;28;20073;-74
2023/04/18 23:38:14;;;;;;;15.30;6.68;;;;;;;;;;10542157;28;20101;-76
2023/04/18 23:43:19;;;;;;;15.70;6.07;;;;;;;;;;10553672;28;20186;-75
2023/04/18 23:48:22;;;;;;;14.05;6.32;;;;;;;;;;10555576;28;20489;-78
2023/04/18 23:53:25;;;;;;;17.00;6.10;;;;;;;;;;10541855;28;20436;-76
2023/04/18 23:58:30;;;;;;;15.80;6.75;;;;;;;;;;10545014;28;20249;-75
